createdAt,value
2019-03-03T00:00:42.662Z,24.17
2019-03-03T00:03:13.615Z,25.30
2019-03-03T00:05:44.788Z,47.47
2019-03-03T00:08:15.999Z,28.80
2019-03-03T00:10:47.427Z,26.97
2019-03-03T00:13:18.038Z,24.73
2019-03-03T00:15:49.190Z,23.60
2019-03-03T00:18:20.074Z,25.63
2019-03-03T00:20:52.406Z,27.50
2019-03-03T00:23:23.768Z,25.57
2019-03-03T00:25:55.500Z,26.37
2019-03-03T00:28:26.799Z,25.70
2019-03-03T00:30:57.959Z,26.43
2019-03-03T00:33:29.028Z,24.53
2019-03-03T00:36:00.186Z,25.40
2019-03-03T00:38:32.632Z,24.60
2019-03-03T00:41:04.954Z,23.63
2019-03-03T00:43:37.850Z,24.33
2019-03-03T00:46:10.709Z,25.87
2019-03-03T00:48:43.498Z,23.87
2019-03-03T00:51:15.934Z,23.17
2019-03-03T00:53:46.417Z,24.33
2019-03-03T00:56:18.897Z,24.33
2019-03-03T00:58:51.154Z,25.70
2019-03-03T01:01:23.820Z,24.67
2019-03-03T01:03:57.331Z,23.93
2019-03-03T01:06:29.719Z,24.63
2019-03-03T01:09:02.113Z,24.10
2019-03-03T01:11:36.616Z,28.23
2019-03-03T01:14:09.030Z,38.13
2019-03-03T01:16:41.447Z,29.03
2019-03-03T01:19:14.156Z,43.67
2019-03-03T01:21:47.145Z,71.97
2019-03-03T01:24:19.552Z,73.10
2019-03-03T01:26:51.194Z,52.87
2019-03-03T01:29:22.020Z,31.00
2019-03-03T01:31:53.908Z,37.80
2019-03-03T01:34:25.068Z,37.23
2019-03-03T01:36:56.369Z,30.60
2019-03-03T01:39:27.172Z,33.07
2019-03-03T01:41:58.166Z,33.23
2019-03-03T01:44:29.233Z,30.70
2019-03-03T01:47:00.032Z,28.37
2019-03-03T01:49:30.898Z,29.17
2019-03-03T01:52:02.137Z,26.47
2019-03-03T01:54:32.897Z,26.30
2019-03-03T01:57:03.737Z,24.87
2019-03-03T01:59:36.194Z,25.07
2019-03-03T02:02:07.194Z,23.67
2019-03-03T02:04:38.362Z,26.03
2019-03-03T02:07:10.518Z,24.93
2019-03-03T02:09:41.839Z,23.10
2019-03-03T02:12:13.740Z,24.40
2019-03-03T02:14:47.283Z,24.47
2019-03-03T02:17:18.297Z,24.00
2019-03-03T02:19:49.734Z,25.93
2019-03-03T02:22:20.745Z,23.90
2019-03-03T02:24:51.853Z,23.23
2019-03-03T02:27:23.215Z,24.93
2019-03-03T02:29:55.965Z,24.63
2019-03-03T02:32:27.168Z,27.17
2019-03-03T02:34:58.809Z,26.07
2019-03-03T02:37:30.111Z,28.73
2019-03-03T02:40:00.990Z,28.10
2019-03-03T02:42:32.158Z,28.33
2019-03-03T02:45:03.186Z,27.83
2019-03-03T02:47:34.267Z,27.20
2019-03-03T02:50:08.562Z,25.17
2019-03-03T02:52:39.575Z,26.73
2019-03-03T02:55:13.117Z,25.33
2019-03-03T02:57:44.446Z,27.17
2019-03-03T03:00:18.606Z,26.47
2019-03-03T03:02:50.706Z,29.53
2019-03-03T03:05:26.108Z,28.43
2019-03-03T03:07:58.927Z,29.03
2019-03-03T03:10:31.305Z,31.33
2019-03-03T03:13:05.446Z,29.13
2019-03-03T03:15:40.542Z,28.13
2019-03-03T03:18:12.972Z,28.43
2019-03-03T03:20:45.544Z,28.23
2019-03-03T03:23:17.981Z,30.10
2019-03-03T03:25:50.232Z,28.50
2019-03-03T03:28:21.095Z,35.43
2019-03-03T03:30:53.529Z,31.50
2019-03-03T03:33:25.930Z,31.63
2019-03-03T03:35:58.253Z,30.47
2019-03-03T03:38:30.366Z,29.43
2019-03-03T03:41:03.003Z,29.77
2019-03-03T03:43:35.487Z,27.10
2019-03-03T03:46:07.576Z,27.70
2019-03-03T03:48:40.241Z,27.13
2019-03-03T03:51:12.910Z,25.53
2019-03-03T03:53:45.405Z,26.47
2019-03-03T03:56:17.794Z,26.07
2019-03-03T03:58:50.372Z,27.30
2019-03-03T04:01:22.827Z,28.80
2019-03-03T04:03:55.402Z,27.37
2019-03-03T04:06:26.280Z,28.53
2019-03-03T04:09:01.727Z,30.60
2019-03-03T04:11:35.062Z,32.00
2019-03-03T04:14:07.791Z,30.50
2019-03-03T04:16:40.321Z,29.73
2019-03-03T04:19:12.637Z,29.87
2019-03-03T04:21:44.774Z,31.13
2019-03-03T04:24:17.116Z,30.63
2019-03-03T04:26:49.520Z,30.03
2019-03-03T04:29:21.699Z,29.90
2019-03-03T04:31:54.207Z,31.73
2019-03-03T04:34:26.554Z,30.80
2019-03-03T04:37:00.487Z,32.53
2019-03-03T04:39:32.863Z,31.20
2019-03-03T04:42:05.495Z,31.90
2019-03-03T04:44:37.700Z,32.03
2019-03-03T04:47:10.100Z,34.93
2019-03-03T04:49:42.731Z,35.43
2019-03-03T04:52:13.430Z,36.20
2019-03-03T04:54:45.891Z,34.97
2019-03-03T04:57:18.630Z,48.80
2019-03-03T04:59:51.000Z,54.13
2019-03-03T05:02:23.560Z,50.33
2019-03-03T05:04:56.494Z,49.63
2019-03-03T05:07:29.100Z,54.47
2019-03-03T05:10:01.699Z,58.13
2019-03-03T05:12:34.320Z,68.90
2019-03-03T05:15:11.779Z,57.77
2019-03-03T05:17:44.524Z,67.80
2019-03-03T05:20:16.548Z,44.40
2019-03-03T05:22:47.409Z,36.60
2019-03-03T05:25:18.300Z,25.30
2019-03-03T05:27:49.325Z,31.50
2019-03-03T05:30:20.696Z,33.73
2019-03-03T05:32:51.681Z,31.83
2019-03-03T05:35:22.959Z,35.17
2019-03-03T05:37:53.752Z,63.93
2019-03-03T05:40:25.080Z,67.37
2019-03-03T05:42:56.343Z,44.53
2019-03-03T05:45:27.303Z,40.40
2019-03-03T05:47:58.009Z,49.33
2019-03-03T05:50:30.445Z,42.77
2019-03-03T05:53:01.717Z,27.17
2019-03-03T05:55:32.995Z,48.13
2019-03-03T05:58:04.070Z,30.43
2019-03-03T06:00:34.912Z,24.37
2019-03-03T06:03:05.662Z,24.57
2019-03-03T06:05:36.344Z,24.07
2019-03-03T06:08:07.324Z,24.23
2019-03-03T06:10:37.970Z,22.30
2019-03-03T06:13:08.882Z,22.20
2019-03-03T06:15:40.681Z,21.90
2019-03-03T06:18:11.658Z,21.97
2019-03-03T06:20:42.321Z,21.17
2019-03-03T06:23:13.608Z,21.13
2019-03-03T06:25:44.480Z,21.23
2019-03-03T06:28:15.618Z,21.27
2019-03-03T06:30:46.863Z,26.37
2019-03-03T06:33:17.951Z,38.60
2019-03-03T06:35:49.155Z,34.97
2019-03-03T06:38:20.787Z,30.90
2019-03-03T06:40:52.061Z,29.50
2019-03-03T06:43:23.199Z,28.87
2019-03-03T06:45:54.559Z,26.07
2019-03-03T06:48:25.282Z,29.80
2019-03-03T06:50:56.258Z,36.00
2019-03-03T06:53:28.089Z,63.20
2019-03-03T06:55:59.517Z,78.87
2019-03-03T06:58:31.061Z,29.50
2019-03-03T07:01:01.876Z,33.17
2019-03-03T07:03:32.892Z,38.33
2019-03-03T07:06:04.360Z,27.87
2019-03-03T07:08:35.292Z,30.93
2019-03-03T07:11:06.822Z,28.97
2019-03-03T07:13:37.826Z,21.47
2019-03-03T07:16:08.965Z,25.20
2019-03-03T07:18:39.920Z,22.10
2019-03-03T07:21:11.029Z,22.83
2019-03-03T07:23:42.088Z,23.03
2019-03-03T07:26:12.999Z,21.63
2019-03-03T07:28:44.006Z,21.00
2019-03-03T07:31:14.958Z,23.23
2019-03-03T07:33:47.046Z,20.53
2019-03-03T07:36:17.777Z,22.27
2019-03-03T07:38:49.400Z,21.97
2019-03-03T07:41:20.403Z,22.30
2019-03-03T07:43:50.961Z,21.83
2019-03-03T07:46:21.406Z,20.47
2019-03-03T07:48:52.174Z,21.43
2019-03-03T07:51:22.725Z,21.30
2019-03-03T07:53:53.577Z,21.87
2019-03-03T07:56:24.029Z,28.40
2019-03-03T07:58:54.643Z,22.40
2019-03-03T08:01:25.141Z,20.80
2019-03-03T08:03:56.026Z,21.27
2019-03-03T08:06:26.839Z,22.57
2019-03-03T08:08:57.385Z,20.50
2019-03-03T08:11:28.153Z,18.73
2019-03-03T08:13:58.722Z,24.67
2019-03-03T08:16:29.235Z,20.93
2019-03-03T08:19:00.212Z,20.30
2019-03-03T08:21:30.821Z,21.93
2019-03-03T08:24:01.365Z,33.10
2019-03-03T08:26:31.952Z,23.93
2019-03-03T08:29:02.623Z,19.73
2019-03-03T08:31:33.582Z,19.47
2019-03-03T08:34:04.167Z,21.17
2019-03-03T08:36:35.054Z,18.63
2019-03-03T08:39:06.529Z,24.03
2019-03-03T08:41:39.483Z,17.57
2019-03-03T08:44:11.690Z,17.77
2019-03-03T08:46:44.058Z,31.13
2019-03-03T08:49:16.496Z,15.63
2019-03-03T08:51:49.684Z,15.57
2019-03-03T08:54:21.843Z,14.93
2019-03-03T08:56:54.087Z,16.07
2019-03-03T08:59:24.294Z,13.57
2019-03-03T09:01:57.081Z,15.83
2019-03-03T09:04:29.131Z,13.60
2019-03-03T09:07:01.435Z,13.57
2019-03-03T09:09:36.297Z,13.03
2019-03-03T09:12:09.874Z,15.33
2019-03-03T09:14:42.124Z,15.77
2019-03-03T09:17:14.426Z,12.68
2019-03-03T09:19:46.570Z,12.13
2019-03-03T09:22:18.906Z,12.50
2019-03-03T09:24:51.178Z,12.87
2019-03-03T09:27:23.441Z,12.35
2019-03-03T09:29:55.566Z,12.77
2019-03-03T09:32:27.761Z,11.60
2019-03-03T09:34:59.921Z,11.78
2019-03-03T09:37:32.129Z,11.08
2019-03-03T09:40:09.420Z,10.65
2019-03-03T09:42:38.242Z,11.08
2019-03-03T09:45:10.853Z,11.48
2019-03-03T09:47:43.024Z,10.03
2019-03-03T09:50:15.325Z,9.28
2019-03-03T09:52:47.594Z,10.18
2019-03-03T09:55:20.007Z,9.60
2019-03-03T09:57:52.202Z,10.03
2019-03-03T10:00:25.306Z,9.85
2019-03-03T10:03:05.209Z,9.40
2019-03-03T10:05:47.969Z,9.55
2019-03-03T10:08:20.123Z,8.70
2019-03-03T10:10:52.234Z,8.43
2019-03-03T10:13:24.402Z,8.23
2019-03-03T10:16:01.802Z,8.90
2019-03-03T10:18:31.081Z,8.48
2019-03-03T10:21:03.396Z,6.65
2019-03-03T10:23:35.577Z,7.65
2019-03-03T10:26:07.921Z,12.00
2019-03-03T10:28:40.753Z,7.15
2019-03-03T10:31:12.965Z,9.18
2019-03-03T10:33:45.244Z,7.22
2019-03-03T10:36:21.279Z,9.18
2019-03-03T10:38:58.319Z,7.33
2019-03-03T10:41:33.521Z,6.70
2019-03-03T10:44:08.457Z,7.40
2019-03-03T10:46:40.753Z,5.95
2019-03-03T10:49:13.281Z,6.75
2019-03-03T10:51:45.762Z,6.75
2019-03-03T10:54:18.081Z,6.25
2019-03-03T10:56:50.240Z,5.78
2019-03-03T10:59:22.497Z,5.72
2019-03-03T11:01:54.682Z,5.50
2019-03-03T11:04:26.834Z,5.60
2019-03-03T11:07:00.921Z,5.95
2019-03-03T11:09:35.441Z,5.83
2019-03-03T11:12:07.490Z,5.72
2019-03-03T11:14:40.070Z,5.53
2019-03-03T11:17:12.561Z,5.85
2019-03-03T11:19:44.928Z,4.70
2019-03-03T11:22:15.404Z,4.50
2019-03-03T11:24:47.827Z,5.95
2019-03-03T11:27:20.098Z,5.47
2019-03-03T11:29:52.505Z,5.30
2019-03-03T11:32:24.697Z,5.10
2019-03-03T11:34:57.074Z,4.33
2019-03-03T11:37:29.548Z,5.03
2019-03-03T11:40:01.850Z,5.03
2019-03-03T11:42:34.684Z,4.40
2019-03-03T11:45:10.084Z,4.42
2019-03-03T11:47:42.317Z,4.40
2019-03-03T11:50:15.005Z,5.20
2019-03-03T11:52:47.248Z,4.22
2019-03-03T11:55:19.475Z,3.62
2019-03-03T11:57:51.613Z,5.33
2019-03-03T12:00:24.098Z,4.53
2019-03-03T12:02:56.700Z,4.47
2019-03-03T12:05:27.268Z,4.35
2019-03-03T12:07:59.413Z,4.87
2019-03-03T12:10:31.708Z,4.10
2019-03-03T12:13:03.988Z,3.83
2019-03-03T12:15:36.757Z,4.65
2019-03-03T12:18:09.308Z,4.33
2019-03-03T12:20:41.636Z,4.20
2019-03-03T12:23:18.268Z,4.35
2019-03-03T12:25:50.573Z,3.47
2019-03-03T12:28:23.652Z,3.45
2019-03-03T12:30:56.132Z,3.85
2019-03-03T12:33:28.605Z,3.40
2019-03-03T12:36:01.030Z,3.55
2019-03-03T12:38:33.149Z,3.75
2019-03-03T12:41:05.284Z,3.60
2019-03-03T12:43:37.468Z,4.78
2019-03-03T12:46:10.786Z,3.98
2019-03-03T12:48:43.236Z,3.42
2019-03-03T12:51:15.316Z,4.22
2019-03-03T12:53:47.440Z,3.40
2019-03-03T12:56:19.603Z,4.10
2019-03-03T12:58:49.950Z,3.95
2019-03-03T13:01:23.833Z,4.30
2019-03-03T13:03:56.203Z,4.50
2019-03-03T13:06:30.358Z,3.72
2019-03-03T13:09:02.150Z,4.05
2019-03-03T13:11:35.956Z,4.55
2019-03-03T13:14:06.307Z,4.12
2019-03-03T13:16:38.884Z,4.28
2019-03-03T13:26:18.947Z,4.30
2019-03-03T13:28:51.106Z,3.98
2019-03-03T13:31:23.324Z,3.90
2019-03-03T13:33:55.588Z,4.55
2019-03-03T13:36:27.851Z,4.58
2019-03-03T13:39:08.128Z,4.55
2019-03-03T13:41:43.255Z,4.22
2019-03-03T13:44:13.679Z,5.20
2019-03-03T13:46:44.310Z,4.80
2019-03-03T13:49:14.694Z,5.10
2019-03-03T13:51:45.409Z,4.60
2019-03-03T13:54:16.157Z,5.55
2019-03-03T13:56:46.620Z,4.78
2019-03-03T13:59:17.170Z,5.40
2019-03-03T14:01:47.587Z,5.85
2019-03-03T14:04:18.035Z,5.67
2019-03-03T14:06:48.546Z,5.62
2019-03-03T14:09:20.516Z,5.42
2019-03-03T14:11:50.978Z,6.17
2019-03-03T14:14:21.380Z,5.55
2019-03-03T14:16:51.851Z,5.05
2019-03-03T14:19:22.260Z,4.00
2019-03-03T14:21:52.983Z,4.62
2019-03-03T14:24:23.450Z,5.08
2019-03-03T14:26:54.028Z,5.35
2019-03-03T14:29:24.348Z,4.90
2019-03-03T14:31:54.814Z,4.28
2019-03-03T14:34:25.517Z,5.03
2019-03-03T14:36:55.929Z,5.08
2019-03-03T14:39:26.620Z,5.58
2019-03-03T14:41:57.009Z,6.87
2019-03-03T14:44:27.490Z,5.12
2019-03-03T14:46:58.023Z,5.80
2019-03-03T14:49:28.667Z,6.08
2019-03-03T14:51:59.210Z,5.67
2019-03-03T14:54:29.661Z,4.92
2019-03-03T14:57:00.550Z,6.05
2019-03-03T14:59:30.926Z,5.57
2019-03-03T15:02:01.376Z,5.47
2019-03-03T15:04:31.728Z,4.60
2019-03-03T15:07:08.491Z,4.75
2019-03-03T15:09:38.947Z,4.42
2019-03-03T15:12:09.581Z,4.30
2019-03-03T15:14:39.969Z,5.00
2019-03-03T15:17:10.409Z,6.92
2019-03-03T15:19:40.995Z,8.88
2019-03-03T15:22:11.493Z,5.67
2019-03-03T15:24:42.019Z,7.67
2019-03-03T15:27:12.758Z,5.65
2019-03-03T15:29:43.121Z,6.35
2019-03-03T15:32:13.623Z,6.75
2019-03-03T15:34:44.217Z,7.53
2019-03-03T15:37:16.108Z,5.67
2019-03-03T15:39:46.988Z,5.62
2019-03-03T15:42:17.778Z,5.90
2019-03-03T15:44:48.277Z,6.30
2019-03-03T15:47:18.740Z,5.75
2019-03-03T15:49:49.465Z,6.08
2019-03-03T15:52:21.988Z,6.53
2019-03-03T15:54:53.994Z,6.22
2019-03-03T15:57:25.600Z,7.08
2019-03-03T15:59:56.226Z,9.03
2019-03-03T16:02:26.886Z,6.83
2019-03-03T16:04:57.377Z,5.80
2019-03-03T16:07:34.263Z,6.60
2019-03-03T16:10:11.960Z,7.53
2019-03-03T16:12:42.529Z,6.67
2019-03-03T16:15:15.444Z,7.47
2019-03-03T16:17:45.869Z,7.65
2019-03-03T16:20:18.311Z,6.53
2019-03-03T16:22:49.049Z,7.40
2019-03-03T16:25:21.544Z,8.50
2019-03-03T16:27:58.089Z,8.50
2019-03-03T16:30:28.878Z,8.58
2019-03-03T16:33:03.074Z,8.00
2019-03-03T16:35:37.048Z,32.93
2019-03-03T16:38:07.421Z,7.08
2019-03-03T16:40:40.133Z,14.23
2019-03-03T16:43:11.719Z,72.45
2019-03-03T16:45:42.441Z,78.47
2019-03-03T16:48:12.970Z,61.33
2019-03-03T16:50:44.765Z,61.90
2019-03-03T16:53:22.079Z,105.47
2019-03-03T16:56:00.938Z,143.62
2019-03-03T16:58:35.597Z,86.90
2019-03-03T17:01:09.059Z,26.37
2019-03-03T17:03:39.530Z,16.50
2019-03-03T17:06:09.961Z,10.10
2019-03-03T17:08:40.480Z,7.50
2019-03-03T17:11:11.000Z,9.00
2019-03-03T17:13:42.902Z,10.50
2019-03-03T17:16:20.571Z,9.60
2019-03-03T17:18:53.210Z,7.97
2019-03-03T17:21:25.175Z,10.13
2019-03-03T17:23:55.754Z,12.45
2019-03-03T17:26:30.052Z,12.70
2019-03-03T17:29:00.586Z,6.40
2019-03-03T17:31:31.059Z,7.15
2019-03-03T17:34:01.749Z,22.00
2019-03-03T17:36:32.450Z,8.28
2019-03-03T17:39:03.580Z,12.15
2019-03-03T17:41:35.942Z,13.75
2019-03-03T17:44:09.783Z,11.12
2019-03-03T17:46:42.509Z,11.63
2019-03-03T17:49:13.995Z,9.65
2019-03-03T17:51:44.660Z,8.45
2019-03-03T17:54:15.881Z,8.30
2019-03-03T17:56:46.399Z,7.72
2019-03-03T17:59:17.175Z,6.70
2019-03-03T18:01:48.355Z,7.80
2019-03-03T18:04:18.888Z,14.25
2019-03-03T18:06:49.628Z,35.27
2019-03-03T18:09:21.327Z,12.27
2019-03-03T18:11:52.018Z,16.77
2019-03-03T18:14:22.616Z,20.90
2019-03-03T18:16:53.165Z,30.60
2019-03-03T18:19:24.916Z,9.33
2019-03-03T18:22:03.477Z,18.10
2019-03-03T18:24:47.364Z,8.08
2019-03-03T18:27:18.923Z,12.15
2019-03-03T18:30:03.242Z,7.72
2019-03-03T18:32:49.821Z,15.78
2019-03-03T18:35:27.999Z,20.43
2019-03-03T18:38:01.026Z,17.65
2019-03-03T18:40:34.227Z,23.50
2019-03-03T18:43:05.708Z,22.70
2019-03-03T18:45:37.566Z,21.62
2019-03-03T18:48:13.439Z,13.00
2019-03-03T18:50:55.914Z,8.63
2019-03-03T18:53:26.332Z,10.30
2019-03-03T18:56:01.686Z,8.95
2019-03-03T18:58:32.986Z,8.33
2019-03-03T19:01:06.216Z,10.23
2019-03-03T19:03:38.987Z,7.75
2019-03-03T19:06:11.490Z,8.93
2019-03-03T19:08:44.366Z,8.45
2019-03-03T19:11:19.015Z,7.97
2019-03-03T19:13:51.103Z,7.10
2019-03-03T19:16:28.086Z,6.23
2019-03-03T19:19:06.794Z,6.65
2019-03-03T19:21:40.340Z,9.93
2019-03-03T19:24:18.449Z,7.30
2019-03-03T19:26:49.928Z,7.25
2019-03-03T19:29:22.565Z,6.55
2019-03-03T19:31:55.527Z,7.00
2019-03-03T19:34:30.033Z,10.50
2019-03-03T19:37:00.666Z,10.08
2019-03-03T19:39:35.739Z,14.18
2019-03-03T19:42:08.843Z,29.13
2019-03-03T19:44:45.977Z,8.13
2019-03-03T19:47:42.927Z,20.20
2019-03-03T19:50:34.295Z,31.37
2019-03-03T19:53:22.260Z,19.12
2019-03-03T19:56:21.174Z,16.05
2019-03-03T19:59:09.617Z,12.58
2019-03-03T20:02:06.289Z,10.48
2019-03-03T20:05:19.587Z,15.58
2019-03-03T20:07:41.433Z,10.58
2019-03-03T20:10:18.464Z,14.43
2019-03-03T20:12:50.456Z,17.30
2019-03-03T20:15:43.220Z,8.65
2019-03-03T20:18:21.967Z,12.63
2019-03-03T20:20:53.668Z,10.17
2019-03-03T20:23:24.656Z,8.53
2019-03-03T20:25:56.471Z,6.35
2019-03-03T20:28:27.611Z,8.55
2019-03-03T20:30:59.878Z,7.90
2019-03-03T20:33:31.199Z,12.07
2019-03-03T20:36:02.467Z,10.13
2019-03-03T20:38:33.682Z,15.77
2019-03-03T20:41:05.105Z,5.65
2019-03-03T20:43:36.033Z,5.20
2019-03-03T20:46:20.144Z,20.07
2019-03-03T20:49:02.462Z,6.92
2019-03-03T20:51:40.430Z,5.47
2019-03-03T20:54:14.835Z,15.58
2019-03-03T20:56:47.353Z,6.43
2019-03-03T20:59:21.028Z,13.10
2019-03-03T21:01:53.072Z,9.35
2019-03-03T21:04:27.871Z,10.90
2019-03-03T21:06:59.871Z,7.97
2019-03-03T21:09:31.071Z,6.22
2019-03-03T21:12:07.632Z,6.42
2019-03-03T21:14:45.045Z,7.20
2019-03-03T21:17:29.029Z,7.78
2019-03-03T21:20:25.503Z,11.43
2019-03-03T21:23:04.429Z,18.73
2019-03-03T21:25:37.709Z,12.93
2019-03-03T21:28:09.257Z,13.18
2019-03-03T21:30:41.079Z,6.20
2019-03-03T21:33:14.016Z,5.70
2019-03-03T21:35:46.729Z,17.90
2019-03-03T21:38:17.836Z,23.83
2019-03-03T21:40:49.788Z,7.30
2019-03-03T21:43:21.060Z,7.15
2019-03-03T21:46:06.073Z,5.90
2019-03-03T21:48:43.477Z,11.38
2019-03-03T21:51:15.234Z,9.68
2019-03-03T21:53:46.898Z,5.05
2019-03-03T21:56:19.898Z,7.08
2019-03-03T21:58:52.435Z,22.65
2019-03-03T22:01:24.734Z,13.20
2019-03-03T22:03:56.155Z,7.50
2019-03-03T22:06:28.856Z,6.60
2019-03-03T22:09:00.919Z,50.58
2019-03-03T22:11:33.702Z,19.25
2019-03-03T22:14:05.734Z,14.18
2019-03-03T22:16:37.779Z,5.85
2019-03-03T22:19:09.324Z,18.80
2019-03-03T22:21:40.835Z,19.82
2019-03-03T22:24:12.940Z,9.03
2019-03-03T22:26:44.390Z,7.70
2019-03-03T22:29:16.455Z,6.78
2019-03-03T22:31:47.429Z,15.57
2019-03-03T22:34:18.797Z,8.78
2019-03-03T22:36:51.423Z,11.10
2019-03-03T22:39:23.670Z,10.90
2019-03-03T22:41:56.081Z,18.95
2019-03-03T22:44:29.720Z,7.78
2019-03-03T22:47:01.844Z,9.55
2019-03-03T22:49:34.559Z,16.50
2019-03-03T22:52:05.914Z,6.50
2019-03-03T22:54:37.357Z,11.43
2019-03-03T22:57:08.920Z,19.02
2019-03-03T22:59:40.366Z,11.50
2019-03-03T23:02:11.199Z,13.25
2019-03-03T23:04:45.759Z,7.85
2019-03-03T23:07:21.036Z,4.85
2019-03-03T23:09:56.264Z,5.47
2019-03-03T23:12:31.795Z,9.28
2019-03-03T23:15:06.155Z,5.80
2019-03-03T23:17:40.914Z,11.18
2019-03-03T23:20:13.714Z,17.52
2019-03-03T23:22:48.035Z,18.82
2019-03-03T23:25:22.754Z,4.83
2019-03-03T23:27:54.955Z,17.12
2019-03-03T23:30:26.955Z,21.05
2019-03-03T23:32:58.194Z,8.30
2019-03-03T23:35:29.755Z,10.13
2019-03-03T23:38:01.555Z,9.28
2019-03-03T23:40:33.113Z,5.10
2019-03-03T23:43:04.822Z,5.10
2019-03-03T23:45:36.551Z,4.60
2019-03-03T23:48:08.431Z,4.72
2019-03-03T23:50:40.950Z,4.83
2019-03-03T23:53:12.689Z,3.67
2019-03-03T23:55:44.532Z,4.10
2019-03-03T23:58:15.714Z,4.15
